Knierim, Iowa
Current Conditions -  °F | °C
As of 3:15 AM on Monday 22 Dec 2014 (Local Time) from KFOD Reporting Station
Overcast Overcast  
Wind Chill: 32°   Ceiling: 500
Heat Index: 39°   Visibility: 4mi
Dew Point: 37°   Wind: 12mph
Humidity: 93%   Direction: 160°SSE
Pressure: 29.65"   Gusts: 18mph
Location:  42.46°N, 94.46°W
Report Text: KFOD 220915Z AUTO 16010G16KT 130V190 4SM OVC005 04/03 A2965 RMK AO1
Loading
Personal Weather Stations






























Interactive Weather Map New forecast layout! Learn more

10-Day Weather Forecast

Advertisements
Track Severe Weather on mobile